Time;durP1;ratioP1;P1;durP2;ratioP2;P2;SDS_P1;SDS_P2;PMS_P1;PMS_P2;Temp;Humidity;BMP_temperature;BMP_pressure;BME280_temperature;BME280_humidity;BME280_pressure;Samples;Min_cycle;Max_cycle;Signal;HPM_P1;HPM_P2
2023/12/16 00:01:17;;;;;;;3.60;1.23;;;;;;;;;;4921167;29;20047;-85
2023/12/16 00:03:48;;;;;;;3.92;1.50;;;;;;;;;;4954780;29;20044;-88
2023/12/16 00:06:20;;;;;;;5.03;1.98;;;;;;;;;;4953243;28;20051;-88
2023/12/16 00:08:53;;;;;;;5.03;1.63;;;;;;;;;;4921207;29;20054;-86
2023/12/16 00:11:24;;;;;;;5.28;1.60;;;;;;;;;;4920451;29;20054;-88
2023/12/16 00:13:56;;;;;;;6.60;1.60;;;;;;;;;;4920205;29;20706;-87
2023/12/16 00:16:27;;;;;;;3.97;1.75;;;;;;;;;;4919753;29;20050;-87
2023/12/16 00:18:59;;;;;;;6.68;1.45;;;;;;;;;;4920540;29;20058;-87
2023/12/16 00:21:29;;;;;;;3.58;1.60;;;;;;;;;;4935628;29;20489;-88
2023/12/16 00:24:00;;;;;;;4.57;1.38;;;;;;;;;;4920969;29;20047;-87
2023/12/16 00:26:31;;;;;;;5.07;1.30;;;;;;;;;;4953736;29;20058;-85
2023/12/16 00:29:02;;;;;;;8.68;1.55;;;;;;;;;;4947789;29;20457;-86
2023/12/16 00:31:31;;;;;;;4.22;1.40;;;;;;;;;;4932667;29;20055;-88
2023/12/16 00:34:03;;;;;;;3.33;0.93;;;;;;;;;;4916643;29;20105;-86
2023/12/16 00:36:33;;;;;;;8.70;2.17;;;;;;;;;;4933427;29;20073;-88
2023/12/16 00:39:04;;;;;;;4.78;1.40;;;;;;;;;;4931482;29;20061;-87
2023/12/16 00:41:36;;;;;;;;;;;;;;;;;;4917108;29;20044;-86
2023/12/16 00:44:07;;;;;;;4.43;1.27;;;;;;;;;;4932144;29;19919;-87
2023/12/16 00:46:38;;;;;;;3.30;1.25;;;;;;;;;;4934144;29;20032;-85
2023/12/16 00:49:08;;;;;;;7.00;1.52;;;;;;;;;;4920933;29;20043;-85
2023/12/16 00:52:05;;;;;;;3.67;2.08;;;;;;;;;;4936378;29;20051;-85
2023/12/16 00:54:35;;;;;;;4.35;1.40;;;;;;;;;;4951888;29;20413;-86
2023/12/16 00:57:06;;;;;;;4.13;1.35;;;;;;;;;;4936269;29;20058;-84
2023/12/16 00:59:37;;;;;;;2.75;1.70;;;;;;;;;;4935911;29;20094;-86
2023/12/16 01:02:08;;;;;;;5.38;1.45;;;;;;;;;;4920463;29;20058;-86
2023/12/16 01:04:38;;;;;;;4.45;1.13;;;;;;;;;;4935065;29;20043;-86
2023/12/16 01:07:09;;;;;;;4.38;1.50;;;;;;;;;;4953026;29;20051;-86
2023/12/16 01:09:40;;;;;;;2.67;0.90;;;;;;;;;;4952855;29;20494;-86
2023/12/16 01:12:11;;;;;;;9.45;1.20;;;;;;;;;;4936548;29;20043;-87
2023/12/16 01:14:41;;;;;;;4.03;1.20;;;;;;;;;;4919792;29;20047;-86
2023/12/16 01:17:12;;;;;;;2.03;1.02;;;;;;;;;;4920350;29;20044;-88
2023/12/16 01:19:42;;;;;;;1.83;0.98;;;;;;;;;;4916339;29;20051;-86
2023/12/16 01:22:13;;;;;;;5.90;1.85;;;;;;;;;;4917609;29;20055;-87
2023/12/16 01:24:43;;;;;;;2.20;1.00;;;;;;;;;;4916810;29;20067;-90
2023/12/16 01:27:13;;;;;;;5.70;1.17;;;;;;;;;;4915946;29;20059;-90
2023/12/16 01:29:43;;;;;;;3.40;0.80;;;;;;;;;;4916029;29;20047;-87
2023/12/16 01:32:15;;;;;;;5.38;1.02;;;;;;;;;;4900990;29;20059;-87
2023/12/16 01:35:23;;;;;;;5.43;1.10;;;;;;;;;;4919565;29;20052;-87
2023/12/16 01:38:09;;;;;;;4.05;1.00;;;;;;;;;;4916190;29;20372;-85
2023/12/16 01:40:40;;;;;;;4.78;1.10;;;;;;;;;;4915371;29;20060;-85
2023/12/16 01:43:12;;;;;;;3.97;1.10;;;;;;;;;;4917826;29;20047;-86
2023/12/16 01:45:42;;;;;;;3.05;0.90;;;;;;;;;;4915653;29;20475;-85
2023/12/16 01:48:13;;;;;;;4.30;1.13;;;;;;;;;;4918135;29;20509;-84
2023/12/16 01:50:43;;;;;;;2.13;0.90;;;;;;;;;;4933741;29;20048;-84
2023/12/16 01:53:14;;;;;;;3.72;1.20;;;;;;;;;;4918186;29;20059;-89
2023/12/16 01:55:44;;;;;;;6.07;1.75;;;;;;;;;;4918327;29;20062;-88
2023/12/16 01:58:15;;;;;;;2.72;0.90;;;;;;;;;;4940034;29;20058;-88
2023/12/16 02:00:48;;;;;;;5.95;1.13;;;;;;;;;;4932576;29;20047;-89
2023/12/16 02:03:22;;;;;;;1.98;1.05;;;;;;;;;;4947710;29;20056;-86
2023/12/16 02:05:53;;;;;;;6.38;1.20;;;;;;;;;;4931530;29;20039;-85
2023/12/16 02:08:24;;;;;;;4.28;1.00;;;;;;;;;;4949159;29;20045;-88
2023/12/16 02:10:54;;;;;;;4.97;1.30;;;;;;;;;;4946516;29;20047;-88
2023/12/16 02:13:25;;;;;;;6.28;1.50;;;;;;;;;;4927117;29;20039;-84
2023/12/16 02:15:56;;;;;;;7.13;1.90;;;;;;;;;;4923476;29;20056;-84
2023/12/16 02:18:27;;;;;;;5.72;2.00;;;;;;;;;;4925750;29;20482;-84
2023/12/16 02:21:00;;;;;;;6.07;1.83;;;;;;;;;;4947587;28;20039;-87
2023/12/16 02:23:31;;;;;;;8.35;1.80;;;;;;;;;;4922387;29;20052;-86
2023/12/16 02:26:01;;;;;;;4.65;1.42;;;;;;;;;;4922434;29;20051;-88
2023/12/16 02:28:33;;;;;;;3.90;1.73;;;;;;;;;;4904845;29;20394;-85
2023/12/16 02:31:03;;;;;;;3.72;1.10;;;;;;;;;;4921868;29;20039;-87
2023/12/16 02:33:35;;;;;;;6.72;1.33;;;;;;;;;;4922150;29;20040;-86
2023/12/16 02:44:43;;;;;;;2.75;1.17;;;;;;;;;;4896286;29;20500;-86
2023/12/16 03:31:21;;;;;;;7.22;1.60;;;;;;;;;;4957770;28;20386;-89
2023/12/16 03:33:53;;;;;;;5.53;1.58;;;;;;;;;;4937552;29;20047;-86
2023/12/16 03:36:23;;;;;;;5.80;2.13;;;;;;;;;;4922553;29;20054;-88
2023/12/16 03:38:53;;;;;;;7.80;2.42;;;;;;;;;;4949972;29;20421;-89
2023/12/16 03:41:24;;;;;;;4.53;2.38;;;;;;;;;;4922315;29;20497;-86
2023/12/16 03:43:59;;;;;;;8.27;2.35;;;;;;;;;;4939315;29;20032;-87
2023/12/16 03:46:29;;;;;;;5.72;2.03;;;;;;;;;;4929878;29;20050;-86
2023/12/16 03:49:00;;;;;;;5.03;1.92;;;;;;;;;;4937702;29;20045;-86
2023/12/16 03:51:32;;;;;;;11.90;2.55;;;;;;;;;;4935028;29;20050;-87
2023/12/16 03:54:03;;;;;;;8.50;1.90;;;;;;;;;;4923458;29;20047;-87
2023/12/16 03:56:33;;;;;;;6.10;1.98;;;;;;;;;;4923047;29;20050;-86
2023/12/16 03:59:10;;;;;;;7.15;1.95;;;;;;;;;;4938496;29;20051;-87
2023/12/16 04:01:45;;;;;;;3.65;1.98;;;;;;;;;;4938087;29;20070;-87
2023/12/16 04:04:17;;;;;;;8.35;1.92;;;;;;;;;;4956265;29;20058;-87
2023/12/16 04:06:48;;;;;;;4.88;1.90;;;;;;;;;;4937845;29;20043;-87
2023/12/16 04:09:18;;;;;;;3.70;1.98;;;;;;;;;;4939042;29;20374;-89
2023/12/16 04:11:49;;;;;;;4.97;1.35;;;;;;;;;;4958091;28;20069;-88
2023/12/16 04:14:20;;;;;;;4.80;1.70;;;;;;;;;;4957438;28;20058;-87
2023/12/16 04:16:54;;;;;;;5.78;1.70;;;;;;;;;;4957310;28;20042;-88
2023/12/16 04:19:25;;;;;;;4.72;1.58;;;;;;;;;;4974945;28;20047;-88
2023/12/16 04:21:56;;;;;;;6.05;1.58;;;;;;;;;;4956548;28;20042;-86
2023/12/16 04:24:27;;;;;;;5.40;1.55;;;;;;;;;;4958389;28;20046;-87
2023/12/16 04:26:59;;;;;;;6.07;1.88;;;;;;;;;;4956938;28;20061;-88
2023/12/16 04:29:30;;;;;;;6.65;1.55;;;;;;;;;;4957424;28;20047;-87
2023/12/16 04:32:00;;;;;;;6.13;1.63;;;;;;;;;;4957026;28;20046;-87
2023/12/16 04:34:30;;;;;;;4.13;1.73;;;;;;;;;;4957674;28;20046;-87
2023/12/16 04:37:01;;;;;;;5.70;1.70;;;;;;;;;;4956532;28;20050;-87
2023/12/16 04:39:31;;;;;;;4.63;1.65;;;;;;;;;;4973104;28;20054;-89
2023/12/16 04:42:02;;;;;;;5.57;1.80;;;;;;;;;;4956742;28;20053;-87
2023/12/16 04:44:34;;;;;;;4.80;1.55;;;;;;;;;;4942136;28;20043;-86
2023/12/16 04:47:05;;;;;;;3.00;2.53;;;;;;;;;;4957679;28;20069;-87
2023/12/16 04:49:35;;;;;;;4.03;1.65;;;;;;;;;;4957344;28;20051;-87
2023/12/16 04:52:06;;;;;;;6.35;1.75;;;;;;;;;;4973682;28;20500;-87
2023/12/16 04:54:36;;;;;;;4.05;2.45;;;;;;;;;;4974559;28;20366;-85
2023/12/16 04:57:07;;;;;;;4.57;1.77;;;;;;;;;;4956851;28;20047;-85
2023/12/16 04:59:37;;;;;;;5.40;1.80;;;;;;;;;;4941446;28;20051;-87
2023/12/16 05:02:08;;;;;;;5.65;2.08;;;;;;;;;;4973627;28;20465;-86
2023/12/16 05:04:38;;;;;;;8.23;1.67;;;;;;;;;;4941298;28;20385;-85
2023/12/16 05:07:09;;;;;;;4.78;2.45;;;;;;;;;;4941408;28;20050;-86
2023/12/16 05:09:39;;;;;;;10.15;3.22;;;;;;;;;;4940944;28;20047;-87
2023/12/16 05:12:10;;;;;;;8.27;2.70;;;;;;;;;;4973297;28;20054;-87
2023/12/16 05:14:40;;;;;;;9.07;3.08;;;;;;;;;;4956554;28;20089;-88
2023/12/16 05:17:12;;;;;;;7.80;3.25;;;;;;;;;;4973741;28;20051;-88
2023/12/16 05:19:42;;;;;;;7.43;2.13;;;;;;;;;;4956333;28;20050;-89
2023/12/16 05:22:13;;;;;;;8.13;1.90;;;;;;;;;;4974453;28;20043;-88
2023/12/16 05:24:43;;;;;;;5.03;2.88;;;;;;;;;;4973015;28;20373;-87
2023/12/16 05:27:13;;;;;;;2.95;1.65;;;;;;;;;;4956109;28;20401;-86
2023/12/16 05:29:43;;;;;;;3.25;1.67;;;;;;;;;;4941217;28;20046;-86
2023/12/16 05:32:15;;;;;;;3.53;1.35;;;;;;;;;;4958486;28;20180;-86
2023/12/16 05:34:46;;;;;;;6.47;1.75;;;;;;;;;;4960077;28;20458;-89
2023/12/16 05:37:16;;;;;;;5.35;2.08;;;;;;;;;;4944442;28;20047;-86
2023/12/16 05:39:47;;;;;;;3.45;1.75;;;;;;;;;;4976132;28;20370;-87
2023/12/16 05:42:18;;;;;;;6.03;1.70;;;;;;;;;;4960870;28;20470;-86
2023/12/16 05:44:49;;;;;;;6.88;1.90;;;;;;;;;;4976995;28;20512;-87
2023/12/16 05:47:19;;;;;;;7.28;1.80;;;;;;;;;;4944256;28;20054;-88
2023/12/16 05:49:51;;;;;;;4.68;1.77;;;;;;;;;;4943972;28;20484;-89
2023/12/16 05:52:22;;;;;;;3.25;1.35;;;;;;;;;;4944695;28;20046;-86
2023/12/16 05:54:52;;;;;;;5.63;1.90;;;;;;;;;;4960946;28;20043;-88
2023/12/16 05:57:24;;;;;;;12.07;2.47;;;;;;;;;;4944627;28;20046;-86
2023/12/16 05:59:54;;;;;;;6.80;2.10;;;;;;;;;;4944505;28;20382;-87
2023/12/16 06:02:25;;;;;;;7.88;1.83;;;;;;;;;;4943896;28;20051;-86
2023/12/16 06:04:57;;;;;;;5.28;2.03;;;;;;;;;;4959864;28;20062;-86
2023/12/16 06:07:28;;;;;;;5.45;2.15;;;;;;;;;;4944074;28;20050;-86
2023/12/16 06:09:59;;;;;;;6.03;1.65;;;;;;;;;;4943418;28;20508;-86
2023/12/16 06:12:35;;;;;;;7.38;1.95;;;;;;;;;;4959295;28;20054;-88
2023/12/16 06:15:06;;;;;;;5.18;2.15;;;;;;;;;;4959010;28;20496;-85
2023/12/16 06:17:36;;;;;;;5.75;2.03;;;;;;;;;;4960449;28;20038;-87
2023/12/16 06:20:08;;;;;;;7.10;2.00;;;;;;;;;;4977020;28;20057;-87
2023/12/16 06:22:38;;;;;;;4.75;1.77;;;;;;;;;;4943642;28;20047;-85
2023/12/16 06:25:08;;;;;;;7.35;2.00;;;;;;;;;;4959361;28;20127;-85
2023/12/16 06:27:40;;;;;;;5.97;2.78;;;;;;;;;;4958875;28;20370;-86
2023/12/16 06:30:12;;;;;;;5.05;2.45;;;;;;;;;;4944127;28;20050;-86
2023/12/16 06:32:43;;;;;;;4.38;1.75;;;;;;;;;;4944583;28;20046;-86
2023/12/16 06:35:14;;;;;;;6.10;2.08;;;;;;;;;;4976817;28;20049;-86
2023/12/16 06:37:44;;;;;;;7.15;2.38;;;;;;;;;;4943239;28;20073;-86
2023/12/16 06:40:14;;;;;;;5.75;2.20;;;;;;;;;;4958446;28;20058;-86
2023/12/16 06:42:45;;;;;;;5.32;2.03;;;;;;;;;;4942847;28;20054;-89
2023/12/16 06:45:16;;;;;;;4.20;2.08;;;;;;;;;;4943928;28;20046;-88
2023/12/16 06:47:49;;;;;;;7.07;2.40;;;;;;;;;;4958589;28;20107;-86
2023/12/16 06:50:19;;;;;;;6.20;2.53;;;;;;;;;;4959541;28;20050;-87
2023/12/16 06:52:50;;;;;;;4.40;2.10;;;;;;;;;;4958959;28;20049;-86
2023/12/16 06:55:20;;;;;;;7.05;2.15;;;;;;;;;;4959359;28;20042;-86
2023/12/16 06:57:50;;;;;;;5.65;2.03;;;;;;;;;;4975852;28;20062;-88
2023/12/16 07:00:21;;;;;;;6.38;2.38;;;;;;;;;;4976024;28;20366;-87
2023/12/16 07:02:51;;;;;;;4.57;2.10;;;;;;;;;;4904675;29;20059;-88
2023/12/16 07:05:22;;;;;;;6.43;2.88;;;;;;;;;;4920258;29;20048;-87
2023/12/16 07:07:52;;;;;;;5.45;2.08;;;;;;;;;;4921367;29;20047;-87
2023/12/16 07:10:22;;;;;;;9.95;2.17;;;;;;;;;;4904721;29;20067;-87
2023/12/16 07:12:53;;;;;;;6.20;2.15;;;;;;;;;;4936093;29;20051;-89
2023/12/16 07:15:25;;;;;;;5.18;2.15;;;;;;;;;;4905263;29;20051;-87
2023/12/16 07:17:55;;;;;;;6.30;2.40;;;;;;;;;;4920515;29;20052;-88
2023/12/16 07:20:25;;;;;;;6.35;2.05;;;;;;;;;;4936397;29;20055;-86
2023/12/16 07:22:56;;;;;;;5.95;2.20;;;;;;;;;;4920657;29;20050;-86
2023/12/16 07:25:26;;;;;;;7.55;2.25;;;;;;;;;;4937364;29;20050;-87
2023/12/16 07:27:57;;;;;;;6.22;2.47;;;;;;;;;;4905179;29;20047;-85
2023/12/16 07:30:27;;;;;;;5.63;2.70;;;;;;;;;;4920552;29;20407;-86
2023/12/16 07:32:58;;;;;;;8.60;2.60;;;;;;;;;;4920138;29;20048;-89
2023/12/16 07:35:28;;;;;;;6.82;2.17;;;;;;;;;;4935983;29;20403;-86
2023/12/16 07:37:58;;;;;;;3.95;2.03;;;;;;;;;;4920146;29;20167;-86
2023/12/16 07:40:29;;;;;;;5.53;2.70;;;;;;;;;;4920001;29;20050;-86
2023/12/16 07:43:00;;;;;;;7.97;2.60;;;;;;;;;;4920271;29;20050;-86
2023/12/16 07:45:31;;;;;;;5.85;2.53;;;;;;;;;;4919577;29;20050;-87
2023/12/16 07:48:01;;;;;;;8.48;2.75;;;;;;;;;;4919289;29;20047;-88
2023/12/16 07:50:32;;;;;;;8.23;2.30;;;;;;;;;;4935734;29;20506;-86
2023/12/16 07:53:02;;;;;;;5.88;2.38;;;;;;;;;;4919086;29;20059;-86
2023/12/16 07:55:34;;;;;;;6.80;2.15;;;;;;;;;;4935312;29;20051;-88
2023/12/16 07:58:04;;;;;;;7.05;2.33;;;;;;;;;;4919957;29;20047;-87
2023/12/16 08:00:35;;;;;;;6.53;2.35;;;;;;;;;;4936054;29;20051;-87
2023/12/16 08:03:06;;;;;;;6.88;2.25;;;;;;;;;;4919504;29;20043;-86
2023/12/16 08:05:36;;;;;;;6.75;2.53;;;;;;;;;;4918381;29;20051;-89
2023/12/16 08:08:07;;;;;;;7.47;2.28;;;;;;;;;;4935799;29;20079;-86
2023/12/16 08:10:37;;;;;;;6.25;2.28;;;;;;;;;;4919178;29;20063;-87
2023/12/16 08:13:07;;;;;;;5.50;2.60;;;;;;;;;;4919473;29;20475;-85
2023/12/16 08:15:38;;;;;;;9.23;2.88;;;;;;;;;;4934873;29;20055;-85
2023/12/16 08:18:13;;;;;;;5.93;2.75;;;;;;;;;;4920726;29;20054;-85
2023/12/16 08:20:49;;;;;;;8.10;2.53;;;;;;;;;;4919632;29;20055;-85
2023/12/16 08:23:20;;;;;;;5.68;2.45;;;;;;;;;;4919879;29;20043;-86
2023/12/16 08:25:50;;;;;;;9.75;2.85;;;;;;;;;;4935436;29;20039;-85
2023/12/16 08:28:25;;;;;;;7.22;2.75;;;;;;;;;;4934350;29;20052;-85
2023/12/16 08:30:55;;;;;;;8.25;2.75;;;;;;;;;;4919909;29;20059;-89
2023/12/16 08:33:26;;;;;;;10.50;2.85;;;;;;;;;;4919680;29;20424;-86
2023/12/16 08:35:56;;;;;;;9.05;2.92;;;;;;;;;;4903492;29;20378;-89
2023/12/16 08:38:29;;;;;;;8.63;2.90;;;;;;;;;;4919806;29;20059;-85
2023/12/16 08:41:06;;;;;;;8.02;2.47;;;;;;;;;;4919630;29;20051;-87
2023/12/16 08:43:37;;;;;;;4.95;2.00;;;;;;;;;;4919029;29;20055;-86
2023/12/16 08:46:08;;;;;;;5.38;2.28;;;;;;;;;;4934336;29;20157;-88
2023/12/16 08:48:40;;;;;;;10.35;2.22;;;;;;;;;;4903612;29;20044;-86
2023/12/16 08:51:11;;;;;;;4.65;2.20;;;;;;;;;;4903249;29;20055;-85
2023/12/16 08:53:42;;;;;;;10.77;2.50;;;;;;;;;;4920085;29;20043;-86
2023/12/16 08:56:13;;;;;;;10.25;3.40;;;;;;;;;;4934573;29;20048;-87
2023/12/16 08:58:43;;;;;;;8.63;2.65;;;;;;;;;;4919923;29;20044;-85
2023/12/16 09:01:17;;;;;;;6.93;2.63;;;;;;;;;;4935917;29;20394;-86
2023/12/16 09:03:48;;;;;;;4.68;2.70;;;;;;;;;;4918801;29;20475;-89
2023/12/16 09:06:20;;;;;;;7.28;3.08;;;;;;;;;;4936979;29;20052;-86
2023/12/16 09:08:51;;;;;;;;;;;;;;;;;;4908103;29;20047;-86
2023/12/16 09:11:22;;;;;;;9.18;3.15;;;;;;;;;;4942667;29;19918;-90
2023/12/16 09:13:52;;;;;;;10.65;3.47;;;;;;;;;;4947136;29;20051;-86
2023/12/16 09:16:23;;;;;;;11.35;3.60;;;;;;;;;;4932764;29;20047;-86
2023/12/16 09:18:53;;;;;;;7.85;3.67;;;;;;;;;;4946762;29;20063;-87
2023/12/16 09:21:23;;;;;;;7.90;3.63;;;;;;;;;;4951304;29;20116;-86
2023/12/16 09:23:53;;;;;;;8.68;3.33;;;;;;;;;;4958973;29;20071;-90
2023/12/16 09:26:24;;;;;;;8.63;3.35;;;;;;;;;;4963337;28;20048;-86
2023/12/16 09:28:54;;;;;;;8.23;3.25;;;;;;;;;;4946675;28;20059;-85
2023/12/16 09:31:25;;;;;;;10.00;2.78;;;;;;;;;;4960765;28;20028;-86
2023/12/16 09:33:56;;;;;;;6.30;2.60;;;;;;;;;;4924179;29;20031;-86
2023/12/16 09:36:29;;;;;;;6.30;2.50;;;;;;;;;;4940195;29;20051;-88
2023/12/16 09:39:00;;;;;;;4.70;2.03;;;;;;;;;;4939924;29;20067;-86
2023/12/16 09:41:31;;;;;;;6.75;2.20;;;;;;;;;;4907484;29;20059;-87
2023/12/16 09:44:03;;;;;;;6.57;2.28;;;;;;;;;;4940019;29;20043;-88
2023/12/16 09:46:34;;;;;;;6.10;2.20;;;;;;;;;;4930931;29;20047;-90
2023/12/16 09:49:04;;;;;;;10.90;2.40;;;;;;;;;;4941467;29;20054;-89
2023/12/16 09:51:35;;;;;;;6.15;2.13;;;;;;;;;;4944594;29;20051;-86
2023/12/16 09:54:06;;;;;;;5.32;2.60;;;;;;;;;;4941424;29;20132;-86
2023/12/16 09:56:40;;;;;;;10.68;3.05;;;;;;;;;;4925794;29;20042;-88
2023/12/16 09:59:30;;;;;;;7.82;2.53;;;;;;;;;;4944032;28;20516;-89
2023/12/16 10:02:28;;;;;;;6.97;2.10;;;;;;;;;;4957580;28;20398;-90
2023/12/16 10:05:08;;;;;;;6.63;2.28;;;;;;;;;;4924646;29;20059;-87
2023/12/16 10:07:39;;;;;;;8.77;2.08;;;;;;;;;;4938291;29;20054;-88
2023/12/16 10:10:14;;;;;;;7.72;2.47;;;;;;;;;;4922930;29;20039;-87
2023/12/16 10:12:44;;;;;;;9.13;2.00;;;;;;;;;;4937982;29;20043;-90
2023/12/16 10:15:41;;;;;;;5.25;1.63;;;;;;;;;;4954049;29;20058;-88
2023/12/16 10:21:22;;;;;;;;;;;;;;;;;;4937126;29;20504;-89
2023/12/16 10:24:02;;;;;;;3.63;1.63;;;;;;;;;;4918597;29;19934;-86
2023/12/16 10:26:34;;;;;;;8.25;1.52;;;;;;;;;;4918997;29;20055;-88
2023/12/16 10:29:04;;;;;;;7.07;1.65;;;;;;;;;;4919261;29;20079;-87
2023/12/16 10:31:35;;;;;;;5.30;1.40;;;;;;;;;;4919197;29;20051;-89
2023/12/16 10:34:05;;;;;;;8.93;1.92;;;;;;;;;;4917338;29;20051;-88
2023/12/16 10:36:37;;;;;;;6.93;1.70;;;;;;;;;;4918532;29;20047;-87
2023/12/16 10:39:07;;;;;;;5.00;1.48;;;;;;;;;;4919536;29;20054;-88
2023/12/16 10:41:37;;;;;;;3.85;1.73;;;;;;;;;;4918893;29;20372;-85
2023/12/16 10:48:35;;;;;;;6.13;1.90;;;;;;;;;;4938078;29;20043;-88
2023/12/16 10:51:09;;;;;;;4.18;2.13;;;;;;;;;;4954315;29;20059;-89
2023/12/16 10:54:06;;;;;;;5.50;2.50;;;;;;;;;;4921771;29;20051;-87
2023/12/16 10:56:48;;;;;;;10.85;2.50;;;;;;;;;;4930840;29;20055;-88
2023/12/16 10:59:33;;;;;;;5.93;1.77;;;;;;;;;;4950528;29;20050;-89
2023/12/16 11:02:23;;;;;;;4.55;1.60;;;;;;;;;;4935753;29;20050;-86
2023/12/16 11:05:20;;;;;;;6.97;1.80;;;;;;;;;;4947925;29;20039;-86
2023/12/16 11:07:51;;;;;;;5.28;1.77;;;;;;;;;;4941249;29;20055;-90
2023/12/16 11:10:24;;;;;;;2.42;1.27;;;;;;;;;;4958123;29;20031;-84
2023/12/16 11:12:56;;;;;;;2.28;1.10;;;;;;;;;;4956847;29;20142;-84
2023/12/16 11:15:32;;;;;;;6.25;1.48;;;;;;;;;;4940458;29;20047;-82
2023/12/16 11:18:13;;;;;;;8.82;1.50;;;;;;;;;;4939238;29;20052;-85
2023/12/16 11:20:52;;;;;;;4.68;1.40;;;;;;;;;;4956532;29;20050;-86
2023/12/16 11:23:29;;;;;;;4.53;1.50;;;;;;;;;;4956430;29;20046;-84
2023/12/16 11:26:03;;;;;;;4.07;1.58;;;;;;;;;;4956910;29;20035;-83
2023/12/16 11:28:33;;;;;;;6.97;1.55;;;;;;;;;;4938344;29;20453;-83
2023/12/16 11:31:04;;;;;;;8.95;1.40;;;;;;;;;;4956812;29;20050;-84
2023/12/16 11:33:46;;;;;;;5.18;1.30;;;;;;;;;;4957201;29;20065;-83
2023/12/16 11:36:18;;;;;;;3.53;1.33;;;;;;;;;;4956192;29;20322;-86
2023/12/16 11:38:48;;;;;;;2.83;0.77;;;;;;;;;;4958400;29;20040;-84
2023/12/16 11:41:42;;;;;;;2.55;1.30;;;;;;;;;;4957851;29;20035;-87
2023/12/16 11:44:13;;;;;;;1.92;1.00;;;;;;;;;;4948999;29;20063;-83
2023/12/16 11:46:44;;;;;;;3.40;1.02;;;;;;;;;;4940761;29;20054;-84
2023/12/16 11:49:24;;;;;;;3.47;1.00;;;;;;;;;;4940624;29;20500;-84
2023/12/16 11:52:22;;;;;;;5.70;1.10;;;;;;;;;;4957999;29;20046;-83
2023/12/16 11:54:57;;;;;;;5.00;1.23;;;;;;;;;;4940204;29;20039;-87
2023/12/16 11:58:02;;;;;;;2.92;1.30;;;;;;;;;;4957286;29;20050;-87
2023/12/16 12:00:33;;;;;;;3.67;1.02;;;;;;;;;;4956123;29;20043;-87
2023/12/16 12:03:04;;;;;;;3.53;1.00;;;;;;;;;;4938411;29;20054;-85
2023/12/16 12:05:36;;;;;;;5.97;1.23;;;;;;;;;;4939535;29;20043;-89
2023/12/16 12:08:32;;;;;;;10.50;1.40;;;;;;;;;;4938879;29;20058;-84
2023/12/16 12:11:06;;;;;;;3.25;1.00;;;;;;;;;;4938719;29;20398;-87
2023/12/16 12:13:36;;;;;;;5.43;1.10;;;;;;;;;;4955159;29;20058;-88
2023/12/16 12:16:07;;;;;;;3.25;1.30;;;;;;;;;;4955856;29;20050;-85
2023/12/16 12:18:37;;;;;;;2.45;1.33;;;;;;;;;;4956194;29;20051;-87
2023/12/16 12:21:08;;;;;;;4.57;1.20;;;;;;;;;;4955596;29;20047;-87
2023/12/16 12:23:40;;;;;;;3.63;1.23;;;;;;;;;;4952903;28;20043;-85
2023/12/16 12:26:11;;;;;;;3.08;1.17;;;;;;;;;;4938034;29;20394;-84
2023/12/16 12:28:41;;;;;;;2.35;1.13;;;;;;;;;;4955246;29;20047;-85
2023/12/16 12:31:13;;;;;;;3.75;1.23;;;;;;;;;;4954386;29;20390;-84
2023/12/16 12:33:44;;;;;;;4.88;1.27;;;;;;;;;;4955023;29;20043;-87
2023/12/16 12:36:15;;;;;;;2.40;0.90;;;;;;;;;;4921591;29;20415;-88
2023/12/16 12:38:53;;;;;;;17.13;6.65;;;;;;;;;;4938435;29;20039;-86
2023/12/16 12:41:24;;;;;;;4.55;2.72;;;;;;;;;;4955165;28;20039;-87
2023/12/16 12:43:54;;;;;;;3.35;1.80;;;;;;;;;;4938019;29;20398;-86
2023/12/16 12:46:24;;;;;;;5.65;1.25;;;;;;;;;;4955445;29;20043;-87
2023/12/16 12:48:55;;;;;;;7.30;2.33;;;;;;;;;;4955621;29;20043;-86
2023/12/16 12:51:26;;;;;;;4.68;2.20;;;;;;;;;;4938055;29;20486;-91
2023/12/16 12:53:58;;;;;;;5.57;3.05;;;;;;;;;;4939009;29;20043;-87
2023/12/16 12:56:31;;;;;;;5.35;1.67;;;;;;;;;;4922870;29;20054;-90
2023/12/16 12:59:02;;;;;;;3.58;1.38;;;;;;;;;;4955805;29;20043;-90
2023/12/16 13:01:53;;;;;;;4.22;1.10;;;;;;;;;;4937398;29;20051;-89
2023/12/16 13:04:25;;;;;;;6.22;1.40;;;;;;;;;;4938100;29;20039;-86
2023/12/16 13:06:56;;;;;;;5.15;1.23;;;;;;;;;;4937403;29;20043;-88
2023/12/16 13:09:28;;;;;;;4.15;2.00;;;;;;;;;;4937683;29;20051;-89
2023/12/16 13:11:59;;;;;;;3.70;1.63;;;;;;;;;;4955117;29;20039;-87
2023/12/16 13:14:30;;;;;;;3.72;1.20;;;;;;;;;;4922847;29;20386;-86
2023/12/16 13:17:00;;;;;;;5.07;1.30;;;;;;;;;;4937497;29;20039;-88
2023/12/16 13:19:30;;;;;;;3.97;1.48;;;;;;;;;;4938293;29;20043;-89
2023/12/16 13:22:00;;;;;;;5.00;1.35;;;;;;;;;;4936997;29;20059;-88
2023/12/16 13:24:33;;;;;;;4.60;1.70;;;;;;;;;;4937866;29;20501;-87
2023/12/16 13:27:05;;;;;;;7.47;1.90;;;;;;;;;;4937967;29;20390;-87
2023/12/16 13:29:35;;;;;;;4.95;1.90;;;;;;;;;;4936845;29;20490;-85
2023/12/16 13:32:05;;;;;;;5.00;1.40;;;;;;;;;;4921777;29;20058;-87
2023/12/16 13:34:35;;;;;;;3.75;1.42;;;;;;;;;;4954502;29;20050;-87
2023/12/16 13:37:06;;;;;;;3.58;1.50;;;;;;;;;;4937554;29;20058;-88
2023/12/16 13:39:37;;;;;;;2.53;1.20;;;;;;;;;;4937401;29;20055;-88
2023/12/16 13:42:07;;;;;;;;;;;;;;;;;;4955301;29;20477;-89
2023/12/16 13:44:38;;;;;;;4.07;1.58;;;;;;;;;;4955500;29;19918;-88
2023/12/16 13:47:08;;;;;;;3.10;1.42;;;;;;;;;;4936711;29;20052;-87
2023/12/16 13:49:38;;;;;;;4.03;1.30;;;;;;;;;;4955046;29;20043;-87
2023/12/16 13:52:08;;;;;;;1.75;1.10;;;;;;;;;;4921950;29;20054;-86
2023/12/16 13:54:38;;;;;;;2.35;1.10;;;;;;;;;;4958136;29;20047;-86
2023/12/16 13:57:10;;;;;;;3.70;1.27;;;;;;;;;;4942069;29;20039;-87
2023/12/16 13:59:42;;;;;;;5.05;1.13;;;;;;;;;;4958252;29;20043;-87
2023/12/16 14:02:12;;;;;;;3.22;1.00;;;;;;;;;;4937175;29;20043;-88
2023/12/16 14:05:07;;;;;;;3.92;1.13;;;;;;;;;;4932372;29;20066;-86
2023/12/16 14:08:02;;;;;;;4.07;2.92;;;;;;;;;;4939350;29;20051;-86
2023/12/16 14:10:54;;;;;;;5.00;1.50;;;;;;;;;;4942735;29;20047;-86
2023/12/16 14:13:25;;;;;;;1.55;1.25;;;;;;;;;;4957414;29;20050;-88
2023/12/16 14:15:56;;;;;;;6.25;1.23;;;;;;;;;;4939207;29;20363;-86
2023/12/16 14:18:27;;;;;;;3.33;1.35;;;;;;;;;;4945094;29;20065;-86
2023/12/16 14:20:58;;;;;;;5.70;1.33;;;;;;;;;;4923860;29;20051;-88
2023/12/16 14:23:47;;;;;;;5.30;1.30;;;;;;;;;;4956881;29;20502;-87
2023/12/16 14:26:19;;;;;;;3.38;1.42;;;;;;;;;;4940412;29;20055;-87
2023/12/16 14:28:50;;;;;;;4.13;1.52;;;;;;;;;;4939131;29;20051;-88
2023/12/16 14:31:23;;;;;;;1.73;1.23;;;;;;;;;;4957468;29;20482;-86
2023/12/16 14:33:53;;;;;;;2.35;1.50;;;;;;;;;;4956989;29;20047;-87
2023/12/16 14:36:24;;;;;;;6.80;1.30;;;;;;;;;;4957103;29;20050;-87
2023/12/16 14:38:55;;;;;;;3.55;1.85;;;;;;;;;;4957319;29;20047;-88
2023/12/16 14:41:26;;;;;;;5.40;1.40;;;;;;;;;;4940629;29;20047;-87
2023/12/16 14:43:56;;;;;;;4.65;0.90;;;;;;;;;;4956774;29;20043;-87
2023/12/16 14:46:26;;;;;;;7.60;1.20;;;;;;;;;;4956694;29;20047;-85
2023/12/16 14:48:56;;;;;;;3.95;1.40;;;;;;;;;;4958807;29;20117;-86
2023/12/16 14:51:26;;;;;;;6.72;1.30;;;;;;;;;;4957735;29;20047;-85
2023/12/16 14:53:56;;;;;;;5.10;1.33;;;;;;;;;;4939924;29;20070;-88
2023/12/16 14:56:26;;;;;;;6.45;1.50;;;;;;;;;;4917427;29;20063;-87
2023/12/16 14:58:57;;;;;;;2.70;1.48;;;;;;;;;;4954662;29;20054;-86
2023/12/16 15:01:28;;;;;;;3.70;1.20;;;;;;;;;;4954705;29;20517;-88
2023/12/16 15:04:00;;;;;;;3.22;1.25;;;;;;;;;;4955734;28;20410;-87
2023/12/16 15:06:32;;;;;;;3.85;1.30;;;;;;;;;;4938509;29;20051;-88
2023/12/16 15:09:02;;;;;;;5.00;1.10;;;;;;;;;;4937816;29;20050;-89
2023/12/16 15:11:35;;;;;;;2.72;1.30;;;;;;;;;;4954545;29;20054;-88
2023/12/16 15:14:07;;;;;;;7.20;1.40;;;;;;;;;;4923118;29;20042;-87
2023/12/16 15:16:37;;;;;;;3.17;1.40;;;;;;;;;;4941163;29;20509;-89
2023/12/16 15:19:12;;;;;;;2.63;1.52;;;;;;;;;;4927965;29;20058;-87
2023/12/16 15:21:43;;;;;;;2.58;1.15;;;;;;;;;;4956715;29;20047;-89
2023/12/16 15:24:13;;;;;;;2.22;1.27;;;;;;;;;;4958293;29;20039;-88
2023/12/16 15:26:44;;;;;;;2.15;1.20;;;;;;;;;;4939909;29;20131;-88
2023/12/16 15:29:14;;;;;;;3.65;1.40;;;;;;;;;;4940017;29;20043;-87
2023/12/16 15:31:49;;;;;;;2.80;1.55;;;;;;;;;;4925860;29;20058;-91
2023/12/16 15:38:19;;;;;;;4.53;1.83;;;;;;;;;;4957877;29;20386;-87
2023/12/16 15:41:17;;;;;;;3.90;1.23;;;;;;;;;;4957142;29;20043;-85
2023/12/16 15:43:47;;;;;;;4.97;1.40;;;;;;;;;;4939324;29;20043;-87
2023/12/16 15:46:18;;;;;;;;;;;;;;;;;;4924404;29;20051;-86
2023/12/16 15:48:47;;;;;;;6.13;1.33;;;;;;;;;;4954529;29;20392;-88
2023/12/16 15:51:26;;;;;;;6.55;1.25;;;;;;;;;;4928567;29;20066;-86
2023/12/16 15:53:56;;;;;;;5.10;1.33;;;;;;;;;;4954739;29;20054;-86
2023/12/16 15:56:28;;;;;;;3.88;1.20;;;;;;;;;;4937066;29;20059;-89
2023/12/16 15:58:59;;;;;;;1.85;0.85;;;;;;;;;;4937885;29;20058;-88
2023/12/16 16:01:32;;;;;;;2.38;0.90;;;;;;;;;;4922226;29;20055;-85
2023/12/16 16:04:04;;;;;;;4.78;1.65;;;;;;;;;;4937764;29;20054;-86
2023/12/16 16:06:36;;;;;;;5.18;1.60;;;;;;;;;;4956121;29;20047;-83
2023/12/16 16:09:07;;;;;;;4.55;1.13;;;;;;;;;;4953519;29;20058;-83
2023/12/16 16:11:39;;;;;;;7.35;1.73;;;;;;;;;;4936496;29;20050;-82
2023/12/16 16:14:09;;;;;;;2.22;0.90;;;;;;;;;;4954111;29;20035;-80
2023/12/16 16:16:39;;;;;;;4.20;1.88;;;;;;;;;;4953514;29;20389;-81
2023/12/16 16:19:10;;;;;;;3.17;0.88;;;;;;;;;;4954470;29;20043;-83